Time;durP1;ratioP1;P1;durP2;ratioP2;P2;SDS_P1;SDS_P2;PMS_P1;PMS_P2;Temp;Humidity;BMP_temperature;BMP_pressure;BME280_temperature;BME280_humidity;BME280_pressure;Samples;Min_cycle;Max_cycle;Signal;HPM_P1;HPM_P2
2022/04/16 00:00:17;;;;;;;32.90;7.37;;;11.00;29.60;;;;;;5024408;28;20466;-60
2022/04/16 00:02:44;;;;;;;31.23;5.53;;;10.90;29.60;;;;;;5030544;28;20462;-60
2022/04/16 00:05:11;;;;;;;32.37;6.07;;;10.90;29.80;;;;;;5016306;28;20468;-60
2022/04/16 00:07:39;;;;;;;31.03;6.00;;;10.90;30.00;;;;;;5026075;28;20482;-60
2022/04/16 00:10:08;;;;;;;31.60;7.20;;;10.90;29.80;;;;;;5023530;28;20492;-62
2022/04/16 00:12:35;;;;;;;31.70;5.60;;;10.90;29.80;;;;;;5024024;28;20551;-60
2022/04/16 00:15:03;;;;;;;30.27;5.60;;;10.90;29.80;;;;;;5023714;28;20464;-61
2022/04/16 00:17:29;;;;;;;31.00;5.73;;;10.90;29.60;;;;;;5025414;28;20558;-60
2022/04/16 00:19:56;;;;;;;30.40;5.00;;;10.90;29.40;;;;;;5025471;28;20463;-60
2022/04/16 00:22:23;;;;;;;31.07;5.20;;;10.90;29.20;;;;;;5022822;28;20486;-60
2022/04/16 00:24:51;;;;;;;33.43;6.03;;;10.80;29.20;;;;;;5020077;28;20961;-60
2022/04/16 00:27:18;;;;;;;30.87;6.10;;;10.80;29.10;;;;;;5025775;28;20479;-60
2022/04/16 00:29:46;;;;;;;31.30;6.60;;;10.80;29.10;;;;;;5022663;28;20462;-59
2022/04/16 00:32:12;;;;;;;31.83;6.00;;;10.80;29.00;;;;;;5033719;28;20979;-60
2022/04/16 00:34:39;;;;;;;29.70;4.73;;;10.80;29.10;;;;;;5022056;28;20474;-60
2022/04/16 00:37:06;;;;;;;31.87;6.10;;;10.80;29.20;;;;;;5020957;28;20479;-60
2022/04/16 00:39:33;;;;;;;31.40;5.70;;;10.80;29.20;;;;;;5024080;28;20490;-60
2022/04/16 00:42:02;;;;;;;32.73;6.00;;;10.70;29.20;;;;;;5031049;28;20474;-60
2022/04/16 00:44:28;;;;;;;30.67;5.33;;;10.70;29.50;;;;;;5021048;28;20450;-59
2022/04/16 00:46:55;;;;;;;31.67;5.40;;;10.60;29.40;;;;;;5021340;28;20984;-59
2022/04/16 00:49:22;;;;;;;30.97;5.23;;;10.60;30.20;;;;;;5024909;28;20973;-58
2022/04/16 00:51:50;;;;;;;32.83;5.20;;;10.50;29.80;;;;;;5034285;28;20910;-60
2022/04/16 00:54:18;;;;;;;31.80;5.63;;;10.50;29.90;;;;;;5027237;28;20497;-60
2022/04/16 00:56:45;;;;;;;31.90;5.50;;;10.40;29.60;;;;;;5027016;28;20573;-59
2022/04/16 00:59:13;;;;;;;31.73;5.73;;;10.40;29.60;;;;;;5019657;28;20467;-61
2022/04/16 01:01:40;;;;;;;32.50;5.63;;;10.40;29.60;;;;;;5031276;28;20482;-60
2022/04/16 01:04:07;;;;;;;32.80;6.03;;;10.30;29.70;;;;;;5029275;28;20462;-60
2022/04/16 01:06:37;;;;;;;31.50;5.77;;;10.30;29.80;;;;;;5031378;28;20482;-60
2022/04/16 01:09:04;;;;;;;31.33;6.70;;;10.30;29.80;;;;;;5026297;28;20470;-59
2022/04/16 01:11:32;;;;;;;32.47;5.83;;;10.20;30.00;;;;;;5020280;28;20464;-59
2022/04/16 01:13:59;;;;;;;32.73;6.20;;;10.20;30.00;;;;;;5024844;28;20469;-59
2022/04/16 01:16:29;;;;;;;32.23;5.70;;;10.20;30.10;;;;;;5021487;28;20493;-60
2022/04/16 01:18:56;;;;;;;31.47;5.90;;;10.10;30.20;;;;;;5028740;28;21023;-60
2022/04/16 01:21:23;;;;;;;31.33;6.20;;;10.10;30.30;;;;;;5024647;28;20466;-59
2022/04/16 01:23:51;;;;;;;30.60;5.33;;;10.10;30.30;;;;;;5027027;28;20459;-60
2022/04/16 01:26:18;;;;;;;32.63;5.60;;;10.10;30.30;;;;;;5043026;28;20474;-60
2022/04/16 01:28:45;;;;;;;33.30;5.63;;;10.00;30.20;;;;;;5043122;28;21226;-60
2022/04/16 01:31:12;;;;;;;32.40;6.10;;;10.00;30.30;;;;;;5034894;28;20463;-60
2022/04/16 01:33:38;;;;;;;31.50;5.83;;;10.00;30.10;;;;;;5029531;28;20466;-59
2022/04/16 01:36:05;;;;;;;32.83;5.50;;;9.90;30.20;;;;;;5029283;28;20847;-60
2022/04/16 01:38:32;;;;;;;31.60;6.07;;;9.90;30.30;;;;;;5037873;28;20458;-61
2022/04/16 01:41:01;;;;;;;32.10;5.60;;;9.90;30.30;;;;;;5029631;28;20467;-60
2022/04/16 01:43:29;;;;;;;31.20;5.40;;;9.80;30.20;;;;;;5030593;28;20458;-60
2022/04/16 01:45:56;;;;;;;32.40;5.83;;;9.80;30.30;;;;;;5024896;28;20485;-59
2022/04/16 01:48:27;;;;;;;33.43;6.03;;;9.80;30.50;;;;;;5029503;28;20847;-60
2022/04/16 01:50:54;;;;;;;32.57;7.27;;;9.70;30.50;;;;;;5029102;28;20468;-61
2022/04/16 01:53:21;;;;;;;33.07;6.10;;;9.70;30.50;;;;;;5041519;28;21217;-60
2022/04/16 01:55:48;;;;;;;31.93;6.00;;;9.60;30.40;;;;;;5030534;28;20454;-60
2022/04/16 01:58:16;;;;;;;34.10;5.90;;;9.60;30.40;;;;;;5026497;28;20468;-59
2022/04/16 02:00:43;;;;;;;32.07;6.10;;;9.60;30.30;;;;;;5026415;28;21141;-59
2022/04/16 02:03:10;;;;;;;32.43;6.40;;;9.60;30.50;;;;;;5027127;28;20467;-61
2022/04/16 02:05:37;;;;;;;30.90;5.07;;;9.50;30.60;;;;;;5026769;28;20467;-60
2022/04/16 02:08:06;;;;;;;32.53;5.47;;;9.50;30.70;;;;;;5028491;28;20493;-59
2022/04/16 02:10:34;;;;;;;32.10;6.20;;;9.40;30.60;;;;;;5029155;28;20463;-60
2022/04/16 02:13:01;;;;;;;31.67;5.17;;;9.40;30.90;;;;;;5026636;28;20463;-60
2022/04/16 02:15:30;;;;;;;33.97;6.73;;;9.30;30.90;;;;;;5021316;28;20463;-60
2022/04/16 02:17:56;;;;;;;32.73;6.30;;;9.30;31.30;;;;;;5029928;28;20497;-61
2022/04/16 02:20:24;;;;;;;34.07;6.17;;;9.30;31.30;;;;;;5027576;28;21151;-60
2022/04/16 02:22:52;;;;;;;32.03;5.70;;;9.30;31.40;;;;;;5032881;28;20497;-59
2022/04/16 02:25:24;;;;;;;33.57;6.43;;;9.20;31.50;;;;;;5028134;28;20463;-61
2022/04/16 02:27:52;;;;;;;32.03;5.87;;;9.20;31.70;;;;;;5033462;28;20486;-59
2022/04/16 02:30:19;;;;;;;32.03;6.00;;;9.20;31.70;;;;;;5030296;28;20485;-60
2022/04/16 02:32:52;;;;;;;32.80;6.10;;;9.20;31.60;;;;;;5022312;28;20470;-60
2022/04/16 02:35:19;;;;;;;33.30;6.73;;;9.20;31.60;;;;;;5027351;28;20462;-60
2022/04/16 02:37:46;;;;;;;33.03;5.93;;;9.20;31.60;;;;;;5039097;28;20485;-60
2022/04/16 02:40:14;;;;;;;32.40;6.00;;;9.10;31.50;;;;;;5029334;28;20474;-60
2022/04/16 02:42:46;;;;;;;33.10;6.13;;;9.10;32.00;;;;;;5023133;28;20463;-60
2022/04/16 02:48:00;;;;;;;32.47;5.90;;;9.00;31.90;;;;;;5027164;28;21388;-59
2022/04/16 02:50:28;;;;;;;33.23;6.60;;;9.00;31.70;;;;;;5025038;28;20463;-58
2022/04/16 02:52:55;;;;;;;32.90;6.33;;;9.00;31.90;;;;;;5024400;28;20848;-60
2022/04/16 02:55:22;;;;;;;32.90;5.53;;;8.90;32.00;;;;;;5027898;28;20459;-61
2022/04/16 02:57:50;;;;;;;33.20;6.13;;;8.90;32.10;;;;;;5028137;28;20497;-60
2022/04/16 03:00:19;;;;;;;33.13;5.77;;;8.90;32.20;;;;;;5026575;28;20897;-59
2022/04/16 03:02:46;;;;;;;34.10;6.00;;;8.90;32.10;;;;;;5025684;28;20474;-60
2022/04/16 03:05:15;;;;;;;32.50;6.00;;;8.80;32.20;;;;;;5022295;28;20463;-61
2022/04/16 03:07:42;;;;;;;33.03;6.37;;;8.80;32.30;;;;;;5027560;28;20486;-59
2022/04/16 03:10:10;;;;;;;32.93;7.17;;;8.90;32.30;;;;;;5031486;28;20463;-60
2022/04/16 03:12:44;;;;;;;32.87;6.03;;;8.90;32.20;;;;;;5025670;28;20466;-60
2022/04/16 03:17:57;;;;;;;32.67;5.70;;;8.90;32.10;;;;;;5027270;28;21237;-60
2022/04/16 03:20:25;;;;;;;34.70;7.07;;;8.80;32.30;;;;;;5024079;28;20502;-60
2022/04/16 03:22:52;;;;;;;32.30;5.57;;;8.80;32.50;;;;;;5027190;28;20459;-59
2022/04/16 03:25:19;;;;;;;33.60;6.53;;;8.70;32.60;;;;;;5027564;28;20463;-60
2022/04/16 03:27:46;;;;;;;36.30;6.70;;;8.70;32.40;;;;;;5037098;28;20483;-60
2022/04/16 03:30:13;;;;;;;34.20;6.17;;;8.70;32.50;;;;;;5024422;28;20455;-60
2022/04/16 03:32:40;;;;;;;33.80;6.60;;;8.70;32.50;;;;;;5027194;28;20948;-59
2022/04/16 03:35:08;;;;;;;33.30;6.90;;;8.60;32.30;;;;;;5023157;28;20459;-60
2022/04/16 03:37:37;;;;;;;34.00;6.00;;;8.60;32.70;;;;;;5027290;28;20918;-60
2022/04/16 03:40:05;;;;;;;32.90;6.40;;;8.50;32.80;;;;;;5033350;28;20459;-59
2022/04/16 03:42:32;;;;;;;32.73;5.67;;;8.50;33.00;;;;;;5028485;28;20454;-60
2022/04/16 03:45:00;;;;;;;33.07;5.70;;;8.40;33.10;;;;;;5028126;28;20494;-60
2022/04/16 03:47:27;;;;;;;33.40;5.97;;;8.40;32.90;;;;;;5024324;28;20525;-60
2022/04/16 03:49:54;;;;;;;33.47;6.80;;;8.30;33.20;;;;;;5031546;28;20545;-60
2022/04/16 03:52:20;;;;;;;37.60;6.03;;;8.30;33.20;;;;;;5028855;28;20973;-60
2022/04/16 04:00:17;;;;;;;34.83;6.30;;;8.20;33.30;;;;;;5021275;28;20457;-62
2022/04/16 04:02:44;;;;;;;33.30;6.03;;;8.20;33.60;;;;;;5024225;28;20855;-60
2022/04/16 04:05:12;;;;;;;34.93;6.27;;;8.20;33.50;;;;;;5025542;28;20473;-60
2022/04/16 04:07:38;;;;;;;36.80;6.10;;;8.20;33.60;;;;;;5021509;28;20490;-60
2022/04/16 04:10:07;;;;;;;33.77;6.07;;;8.20;33.50;;;;;;5024891;28;20647;-60
2022/04/16 04:12:36;;;;;;;35.13;6.20;;;8.20;33.50;;;;;;5026310;28;20528;-59
2022/04/16 04:15:02;;;;;;;34.57;5.97;;;8.10;33.50;;;;;;5027041;28;20462;-59
2022/04/16 04:17:29;;;;;;;34.33;6.73;;;8.10;33.60;;;;;;5026297;28;20489;-59
2022/04/16 04:19:56;;;;;;;34.60;7.60;;;8.10;33.60;;;;;;5020447;28;20459;-60
2022/04/16 04:22:23;;;;;;;34.27;7.17;;;8.10;33.60;;;;;;5026175;28;20506;-59
2022/04/16 04:24:50;;;;;;;34.73;7.20;;;8.10;33.60;;;;;;5029368;28;20470;-59
2022/04/16 04:27:18;;;;;;;35.30;7.90;;;8.10;33.60;;;;;;5031570;28;20492;-59
2022/04/16 04:29:44;;;;;;;37.90;7.97;;;8.10;33.60;;;;;;5034360;28;20462;-61
2022/04/16 04:32:11;;;;;;;36.10;7.97;;;8.10;33.50;;;;;;5023290;28;20498;-60
2022/04/16 04:34:38;;;;;;;35.50;7.77;;;8.00;33.50;;;;;;5021649;28;20462;-60
2022/04/16 04:37:05;;;;;;;38.33;8.23;;;8.00;33.50;;;;;;5024875;28;20502;-61
2022/04/16 04:39:32;;;;;;;36.93;7.67;;;8.00;33.50;;;;;;5027497;28;20465;-59
2022/04/16 04:41:59;;;;;;;34.83;7.17;;;8.00;33.30;;;;;;5025799;28;20466;-60
2022/04/16 04:44:27;;;;;;;34.80;7.10;;;8.00;33.30;;;;;;5023155;28;20471;-59
2022/04/16 04:46:54;;;;;;;34.90;6.50;;;8.00;33.60;;;;;;5026814;28;20482;-60
2022/04/16 04:49:21;;;;;;;34.30;5.90;;;8.00;33.90;;;;;;5021678;28;20487;-59
2022/04/16 04:51:47;;;;;;;36.50;6.70;;;8.00;34.00;;;;;;5022651;28;20993;-60
2022/04/16 04:54:14;;;;;;;34.63;6.90;;;8.00;34.00;;;;;;5039664;28;20469;-60
2022/04/16 04:56:41;;;;;;;35.00;7.03;;;8.10;34.30;;;;;;5030728;28;20493;-59
2022/04/16 04:59:08;;;;;;;35.13;6.80;;;8.10;34.30;;;;;;5031641;28;20470;-59
2022/04/16 05:01:36;;;;;;;35.20;7.90;;;8.20;34.00;;;;;;5029081;28;20498;-59
2022/04/16 05:04:03;;;;;;;33.80;7.00;;;8.30;33.90;;;;;;5030455;28;20470;-59
2022/04/16 05:06:29;;;;;;;35.17;7.37;;;8.40;33.90;;;;;;5029169;28;20525;-60
2022/04/16 05:08:56;;;;;;;33.90;6.00;;;8.60;34.10;;;;;;5028057;28;21000;-59
2022/04/16 05:11:23;;;;;;;34.23;6.80;;;9.10;33.80;;;;;;5022946;28;20490;-60
2022/04/16 05:13:50;;;;;;;34.80;6.87;;;9.70;32.50;;;;;;5029460;28;20467;-60
2022/04/16 05:16:17;;;;;;;34.93;5.97;;;10.20;31.00;;;;;;5029325;28;20467;-59
2022/04/16 05:18:45;;;;;;;34.93;6.00;;;10.50;30.00;;;;;;5028899;28;20845;-60
2022/04/16 05:21:12;;;;;;;35.10;6.73;;;10.80;29.70;;;;;;5026486;28;20980;-61
2022/04/16 05:23:40;;;;;;;34.17;5.47;;;11.00;29.50;;;;;;5032177;28;20465;-60
2022/04/16 05:26:08;;;;;;;34.40;6.00;;;11.20;28.70;;;;;;5035641;28;20470;-60
2022/04/16 05:28:35;;;;;;;32.90;5.90;;;11.50;29.00;;;;;;5042020;28;20474;-60
2022/04/16 05:31:04;;;;;;;32.50;5.70;;;11.80;27.70;;;;;;5029980;28;20852;-60
2022/04/16 05:36:17;;;;;;;33.10;6.40;;;12.60;24.80;;;;;;5034576;28;21653;-60
2022/04/16 05:38:44;;;;;;;32.00;5.40;;;13.10;22.90;;;;;;5024254;28;20462;-60
2022/04/16 05:41:11;;;;;;;32.77;5.87;;;13.40;21.40;;;;;;5029974;28;20451;-60
2022/04/16 05:43:37;;;;;;;33.03;6.60;;;13.80;20.40;;;;;;5027403;28;20463;-60
2022/04/16 05:46:04;;;;;;;32.20;5.70;;;14.30;19.40;;;;;;5042226;28;20461;-60
2022/04/16 05:48:31;;;;;;;30.63;5.03;;;15.20;17.80;;;;;;5033717;28;20478;-60
2022/04/16 05:50:58;;;;;;;30.77;5.40;;;16.20;16.10;;;;;;5028697;28;20486;-60
2022/04/16 05:53:27;;;;;;;30.57;5.83;;;17.40;14.40;;;;;;5027590;28;20494;-60
2022/04/16 05:55:54;;;;;;;31.20;5.67;;;18.80;12.00;;;;;;5037341;28;20469;-60
2022/04/16 05:58:20;;;;;;;29.83;5.40;;;20.30;9.80;;;;;;5028088;28;20960;-60
2022/04/16 06:00:48;;;;;;;29.37;5.63;;;21.70;7.70;;;;;;5025571;28;20855;-61
2022/04/16 06:03:15;;;;;;;29.50;5.13;;;22.80;5.20;;;;;;5027011;28;20474;-60
2022/04/16 06:05:42;;;;;;;28.77;5.00;;;23.90;3.70;;;;;;5022584;28;20462;-60
2022/04/16 06:08:08;;;;;;;29.37;6.30;;;25.20;2.20;;;;;;5023706;28;20486;-60
2022/04/16 06:10:37;;;;;;;28.33;5.47;;;26.30;1.00;;;;;;5028661;28;20465;-61
2022/04/16 06:13:04;;;;;;;27.17;4.83;;;27.40;1.00;;;;;;5028092;28;20875;-60
2022/04/16 06:15:32;;;;;;;28.73;6.60;;;28.60;1.00;;;;;;5028392;28;20473;-61
2022/04/16 06:17:59;;;;;;;29.97;6.03;;;29.60;1.00;;;;;;5025347;28;20474;-60
2022/04/16 06:20:25;;;;;;;27.70;6.30;;;30.60;1.00;;;;;;5024935;28;20828;-61
2022/04/16 06:22:52;;;;;;;27.27;5.47;;;31.60;1.00;;;;;;5030276;28;20456;-61
2022/04/16 06:25:19;;;;;;;26.27;5.40;;;32.50;1.00;;;;;;5030073;28;20559;-62
2022/04/16 06:27:47;;;;;;;26.13;4.67;;;33.10;1.00;;;;;;5034121;28;20486;-64
2022/04/16 06:30:14;;;;;;;26.03;5.30;;;33.80;1.00;;;;;;5024173;28;22108;-61
2022/04/16 06:32:41;;;;;;;25.57;5.20;;;34.60;1.00;;;;;;5021935;28;20563;-60
2022/04/16 06:35:08;;;;;;;25.27;5.13;;;35.40;1.00;;;;;;5026473;28;20463;-58
2022/04/16 06:37:36;;;;;;;25.80;5.87;;;36.30;1.00;;;;;;5024727;28;20506;-59
2022/04/16 06:40:03;;;;;;;26.20;5.50;;;36.90;1.00;;;;;;5020534;28;20469;-59
2022/04/16 06:42:30;;;;;;;25.27;5.43;;;35.90;1.00;;;;;;5041282;28;20462;-59
2022/04/16 06:44:58;;;;;;;26.60;5.33;;;33.80;1.00;;;;;;5032763;28;20533;-58
2022/04/16 06:47:25;;;;;;;25.70;5.20;;;32.60;1.00;;;;;;5027718;28;20489;-59
2022/04/16 06:49:52;;;;;;;27.47;5.80;;;31.10;1.00;;;;;;5027556;28;20485;-58
2022/04/16 06:52:19;;;;;;;28.10;5.53;;;29.50;1.00;;;;;;5025608;28;21204;-59
2022/04/16 06:54:46;;;;;;;27.73;5.67;;;28.00;1.00;;;;;;5030624;28;20459;-59
2022/04/16 06:57:13;;;;;;;27.70;5.73;;;26.50;1.00;;;;;;5021464;28;20495;-59
2022/04/16 06:59:41;;;;;;;28.17;5.57;;;24.90;1.00;;;;;;5028990;28;20491;-59
2022/04/16 07:02:10;;;;;;;28.90;5.30;;;23.50;1.00;;;;;;5022408;28;20487;-59
2022/04/16 07:04:37;;;;;;;29.80;5.73;;;22.30;2.00;;;;;;5036145;28;20462;-59
2022/04/16 07:07:05;;;;;;;31.73;7.03;;;21.20;3.50;;;;;;5025169;28;20490;-59
2022/04/16 07:09:38;;;;;;;30.00;5.63;;;20.30;4.80;;;;;;5031059;28;20496;-59
2022/04/16 07:12:05;;;;;;;30.83;6.67;;;19.50;6.30;;;;;;5029767;28;20462;-59
2022/04/16 07:14:33;;;;;;;30.60;6.77;;;18.80;7.40;;;;;;5028056;28;20566;-58
2022/04/16 07:17:00;;;;;;;31.10;6.93;;;18.20;8.70;;;;;;5020305;28;20486;-60
2022/04/16 07:19:28;;;;;;;31.57;7.17;;;17.60;9.70;;;;;;5022088;28;20467;-60
2022/04/16 07:21:55;;;;;;;31.30;6.07;;;17.10;10.50;;;;;;5027855;28;20467;-59
2022/04/16 07:24:22;;;;;;;30.97;5.80;;;16.60;11.50;;;;;;5028211;28;20462;-58
2022/04/16 07:26:49;;;;;;;32.40;6.83;;;16.20;12.50;;;;;;5024558;28;20488;-59
2022/04/16 07:29:16;;;;;;;32.17;7.27;;;15.80;12.90;;;;;;5029139;28;21265;-57
2022/04/16 07:31:43;;;;;;;33.00;6.50;;;15.50;13.60;;;;;;5027572;28;20506;-56
2022/04/16 07:34:09;;;;;;;33.70;8.63;;;15.30;14.30;;;;;;5024543;28;20467;-58
2022/04/16 07:36:37;;;;;;;32.90;6.90;;;15.10;14.90;;;;;;5030025;28;20991;-57
2022/04/16 07:39:04;;;;;;;32.40;6.70;;;14.80;15.40;;;;;;5020540;28;20476;-57
2022/04/16 07:41:31;;;;;;;32.07;6.03;;;14.70;16.20;;;;;;5025634;28;20467;-58
2022/04/16 07:44:03;;;;;;;32.77;7.10;;;14.50;16.60;;;;;;5022693;28;20561;-58
2022/04/16 07:46:30;;;;;;;32.40;7.40;;;14.40;16.90;;;;;;5021238;28;20487;-60
2022/04/16 07:48:57;;;;;;;32.53;6.37;;;14.20;17.20;;;;;;5024900;28;20494;-58
2022/04/16 07:51:24;;;;;;;31.80;7.10;;;14.10;17.90;;;;;;5024688;28;20491;-59
2022/04/16 07:53:52;;;;;;;32.60;6.53;;;14.00;17.80;;;;;;5019552;28;20459;-59
2022/04/16 07:56:19;;;;;;;32.37;6.90;;;13.80;17.90;;;;;;5022015;28;20494;-63
2022/04/16 07:58:46;;;;;;;35.37;9.33;;;13.70;18.20;;;;;;5025571;28;20493;-61
2022/04/16 08:01:13;;;;;;;33.40;6.40;;;13.60;18.80;;;;;;5020316;28;21008;-61
2022/04/16 08:03:40;;;;;;;33.30;7.23;;;13.60;19.10;;;;;;5022680;28;20459;-61
2022/04/16 08:06:07;;;;;;;34.43;8.60;;;13.50;19.10;;;;;;5024811;28;20460;-61
2022/04/16 08:08:34;;;;;;;33.63;7.57;;;13.40;19.30;;;;;;5024222;28;21003;-59
2022/04/16 08:11:02;;;;;;;34.10;7.90;;;13.30;19.40;;;;;;5024447;28;20494;-60
2022/04/16 08:13:28;;;;;;;34.93;9.13;;;13.30;19.80;;;;;;5026154;28;20996;-60
2022/04/16 08:15:55;;;;;;;35.20;8.50;;;13.20;20.00;;;;;;5025133;28;20474;-61
2022/04/16 08:18:22;;;;;;;35.03;8.90;;;13.20;20.10;;;;;;5022904;28;20483;-62
2022/04/16 08:20:49;;;;;;;34.77;8.50;;;13.10;20.30;;;;;;5018842;28;20473;-63
2022/04/16 08:23:15;;;;;;;36.20;8.20;;;13.00;20.40;;;;;;5021195;28;20462;-58
2022/04/16 08:25:45;;;;;;;33.40;6.77;;;13.00;20.60;;;;;;5021193;28;20482;-59
2022/04/16 08:28:13;;;;;;;34.37;8.00;;;12.90;20.80;;;;;;5028648;28;20482;-60
2022/04/16 08:30:39;;;;;;;35.77;9.63;;;12.80;21.00;;;;;;5026800;28;20469;-60
2022/04/16 08:33:08;;;;;;;36.00;7.63;;;12.70;21.00;;;;;;5021333;28;20490;-59
2022/04/16 08:35:35;;;;;;;36.73;9.30;;;12.70;21.40;;;;;;5021510;28;20470;-59
2022/04/16 08:38:02;;;;;;;35.07;7.93;;;12.60;21.60;;;;;;5017379;28;20487;-59
2022/04/16 08:40:29;;;;;;;35.00;9.27;;;12.50;22.20;;;;;;5022899;28;21038;-61
2022/04/16 08:42:56;;;;;;;35.27;8.27;;;12.50;22.50;;;;;;5020462;28;20467;-59
2022/04/16 08:45:25;;;;;;;36.33;8.20;;;12.50;22.70;;;;;;5026968;28;20467;-60
2022/04/16 08:47:54;;;;;;;35.53;8.70;;;12.40;22.70;;;;;;5021514;28;20483;-60
2022/04/16 08:50:20;;;;;;;34.67;8.37;;;12.50;23.10;;;;;;5019391;28;20569;-60
2022/04/16 08:52:48;;;;;;;37.17;8.70;;;12.50;23.30;;;;;;5017417;28;20475;-59
2022/04/16 08:55:15;;;;;;;35.60;9.40;;;12.50;23.50;;;;;;5018492;28;20482;-58
2022/04/16 08:57:41;;;;;;;33.13;7.30;;;12.50;23.30;;;;;;5015314;28;20491;-60
2022/04/16 09:00:13;;;;;;;34.77;8.60;;;12.50;23.40;;;;;;5020627;28;20463;-60
2022/04/16 09:02:50;;;;;;;34.53;8.50;;;12.60;23.10;;;;;;5015673;28;20474;-59
2022/04/16 09:05:19;;;;;;;36.30;9.50;;;12.60;23.10;;;;;;5012511;28;20466;-62
2022/04/16 09:07:46;;;;;;;34.40;8.03;;;12.70;23.00;;;;;;5028822;28;21014;-60
2022/04/16 09:10:14;;;;;;;35.77;7.90;;;12.70;23.00;;;;;;5019713;28;20490;-59
2022/04/16 09:12:41;;;;;;;35.47;8.97;;;12.80;23.00;;;;;;5026344;28;20454;-61
2022/04/16 09:15:09;;;;;;;36.77;9.30;;;12.80;22.60;;;;;;5028411;28;21302;-60
2022/04/16 09:17:36;;;;;;;34.87;8.30;;;12.90;22.70;;;;;;5022821;28;20478;-59
2022/04/16 09:20:09;;;;;;;33.93;7.53;;;13.00;22.70;;;;;;5026498;28;20460;-60
2022/04/16 09:22:38;;;;;;;33.80;7.93;;;12.90;22.30;;;;;;5023726;28;20532;-58
2022/04/16 09:25:15;;;;;;;34.07;7.80;;;13.00;22.40;;;;;;5020916;28;20965;-58
2022/04/16 09:27:43;;;;;;;34.27;7.10;;;13.00;22.60;;;;;;5023885;28;20543;-59
2022/04/16 09:30:10;;;;;;;33.87;7.93;;;13.00;22.50;;;;;;5020615;28;20514;-59
2022/04/16 09:32:44;;;;;;;34.80;7.70;;;13.00;22.50;;;;;;5030580;28;20462;-59
2022/04/16 09:35:26;;;;;;;35.03;8.30;;;13.00;22.50;;;;;;5031265;28;20467;-58
2022/04/16 09:37:55;;;;;;;33.90;8.53;;;13.00;22.30;;;;;;5025395;28;20474;-59
2022/04/16 09:40:23;;;;;;;34.40;7.93;;;13.00;22.10;;;;;;5022593;28;20458;-59
2022/04/16 09:42:53;;;;;;;35.67;8.50;;;13.00;21.90;;;;;;5034552;28;20468;-59
2022/04/16 09:45:20;;;;;;;34.67;8.60;;;13.10;21.80;;;;;;5027671;28;20462;-58
2022/04/16 09:47:49;;;;;;;35.20;8.33;;;13.10;21.80;;;;;;5023176;28;21297;-62
2022/04/16 09:50:17;;;;;;;36.10;9.30;;;13.00;21.80;;;;;;5025404;28;20486;-59
2022/04/16 09:52:51;;;;;;;34.30;7.70;;;13.10;21.90;;;;;;5029820;28;20465;-60
2022/04/16 09:55:19;;;;;;;34.00;7.53;;;13.10;21.80;;;;;;5025881;28;20463;-60
2022/04/16 09:57:50;;;;;;;34.30;8.63;;;13.10;21.50;;;;;;5026027;28;21196;-61
2022/04/16 10:00:17;;;;;;;35.80;8.47;;;13.20;21.40;;;;;;5021751;28;20459;-61
2022/04/16 10:02:45;;;;;;;32.83;6.87;;;13.30;21.50;;;;;;5033714;28;20922;-63
2022/04/16 10:05:12;;;;;;;35.27;7.67;;;13.40;21.40;;;;;;5026427;28;20463;-60
2022/04/16 10:07:39;;;;;;;34.90;8.53;;;13.40;21.10;;;;;;5027382;28;20490;-62
2022/04/16 10:10:17;;;;;;;34.40;8.23;;;13.50;21.50;;;;;;5028789;28;20486;-61
2022/04/16 10:13:03;;;;;;;33.93;7.87;;;13.60;20.90;;;;;;5015713;28;20524;-61
2022/04/16 10:15:41;;;;;;;35.00;7.90;;;13.70;21.00;;;;;;5027727;28;20463;-62
2022/04/16 10:18:08;;;;;;;34.77;8.07;;;13.70;20.80;;;;;;5034171;28;20994;-63
2022/04/16 10:20:35;;;;;;;33.57;7.87;;;13.80;20.80;;;;;;5026268;28;20459;-61
2022/04/16 10:23:05;;;;;;;33.37;8.27;;;13.80;20.60;;;;;;5026904;28;20455;-62
2022/04/16 10:25:35;;;;;;;34.87;8.20;;;13.80;20.50;;;;;;5037526;28;20964;-62
2022/04/16 10:28:06;;;;;;;33.33;6.77;;;13.80;20.00;;;;;;5031694;28;21061;-62
2022/04/16 10:30:38;;;;;;;33.97;8.90;;;13.70;19.70;;;;;;5022461;28;20475;-61
2022/04/16 10:33:16;;;;;;;32.80;7.77;;;13.60;20.00;;;;;;5018133;28;20463;-61
2022/04/16 10:35:50;;;;;;;34.80;8.73;;;13.60;20.30;;;;;;5017366;28;20458;-62
2022/04/16 10:38:23;;;;;;;33.37;7.93;;;13.60;20.00;;;;;;5017202;28;21000;-61
2022/04/16 10:40:57;;;;;;;34.00;7.10;;;13.50;20.00;;;;;;5026402;28;20513;-58
2022/04/16 10:43:28;;;;;;;33.10;7.60;;;13.40;20.20;;;;;;5023196;28;21062;-63
2022/04/16 10:46:01;;;;;;;33.10;6.57;;;13.40;20.40;;;;;;5026546;28;20498;-64
2022/04/16 10:48:31;;;;;;;32.90;6.43;;;13.30;20.80;;;;;;5025830;28;20467;-61
2022/04/16 10:50:59;;;;;;;32.90;6.87;;;13.20;20.50;;;;;;5025786;28;20494;-62
2022/04/16 10:53:32;;;;;;;33.20;6.40;;;13.10;20.60;;;;;;5032274;28;20458;-61
2022/04/16 10:56:10;;;;;;;33.40;7.23;;;13.00;20.70;;;;;;5027105;28;20478;-61
2022/04/16 10:58:37;;;;;;;33.77;7.57;;;12.90;20.90;;;;;;5023276;28;20490;-59
2022/04/16 11:01:09;;;;;;;33.47;7.07;;;12.80;21.10;;;;;;5026828;28;20475;-61
2022/04/16 11:03:47;;;;;;;33.90;6.50;;;12.80;21.60;;;;;;5028533;28;20541;-60
2022/04/16 11:06:14;;;;;;;33.60;6.90;;;12.70;21.40;;;;;;5019448;28;20464;-60
2022/04/16 11:08:42;;;;;;;33.20;6.53;;;12.70;21.40;;;;;;5023173;28;20462;-60
2022/04/16 11:11:10;;;;;;;34.53;8.20;;;12.70;21.70;;;;;;5026655;28;20490;-62
2022/04/16 11:13:39;;;;;;;33.80;7.23;;;12.70;22.10;;;;;;5031215;28;20459;-61
2022/04/16 11:16:06;;;;;;;33.70;7.30;;;12.60;21.50;;;;;;5024064;28;20463;-60
2022/04/16 11:18:41;;;;;;;33.17;8.30;;;12.60;21.50;;;;;;5021811;28;20467;-63
2022/04/16 11:21:09;;;;;;;36.50;7.67;;;12.70;21.20;;;;;;5028375;28;20466;-62
2022/04/16 11:23:44;;;;;;;32.57;6.97;;;12.80;21.30;;;;;;5025336;28;20477;-61
2022/04/16 11:34:29;;;;;;;34.13;7.30;;;14.10;19.20;;;;;;5027553;28;20457;-64
2022/04/16 11:36:56;;;;;;;33.13;6.70;;;14.40;18.90;;;;;;5028546;28;20482;-63
2022/04/16 11:39:24;;;;;;;31.80;6.37;;;14.70;18.40;;;;;;5029401;28;20493;-63
2022/04/16 11:41:54;;;;;;;32.33;6.37;;;14.90;17.40;;;;;;5028327;28;20474;-63
2022/04/16 11:44:38;;;;;;;31.67;6.37;;;15.00;16.90;;;;;;5035549;28;20471;-61
2022/04/16 11:47:08;;;;;;;31.67;6.10;;;15.10;17.00;;;;;;5023364;28;20501;-64
2022/04/16 11:49:35;;;;;;;31.60;6.43;;;15.40;16.50;;;;;;5032517;28;20474;-63
2022/04/16 11:52:02;;;;;;;31.50;5.30;;;15.80;16.10;;;;;;5033401;28;20459;-62
2022/04/16 11:54:30;;;;;;;32.13;6.47;;;16.30;15.50;;;;;;5029495;28;20463;-63
2022/04/16 11:56:58;;;;;;;31.27;6.00;;;16.70;14.10;;;;;;5038203;28;20499;-61
2022/04/16 11:59:26;;;;;;;30.90;5.87;;;16.80;13.00;;;;;;5027193;28;20490;-64
2022/04/16 12:02:00;;;;;;;30.80;5.80;;;16.90;12.80;;;;;;5028748;28;20467;-64
2022/04/16 12:04:35;;;;;;;30.50;5.23;;;17.00;12.50;;;;;;5027426;28;20455;-65
2022/04/16 12:07:02;;;;;;;30.20;5.60;;;16.90;12.40;;;;;;5032300;28;20488;-62
2022/04/16 12:09:32;;;;;;;31.27;6.33;;;16.70;12.50;;;;;;5026038;28;20466;-63
2022/04/16 12:12:04;;;;;;;31.57;6.93;;;16.60;12.40;;;;;;5012546;28;20482;-64
2022/04/16 12:14:31;;;;;;;34.07;7.73;;;16.30;13.20;;;;;;5036227;28;20466;-64
2022/04/16 12:16:59;;;;;;;35.07;7.13;;;16.10;14.00;;;;;;5024979;28;20474;-64
2022/04/16 12:19:30;;;;;;;33.03;7.67;;;15.80;14.20;;;;;;5023253;28;20501;-64
2022/04/16 12:21:57;;;;;;;33.67;7.20;;;15.70;14.90;;;;;;5037759;28;20461;-63
2022/04/16 12:24:28;;;;;;;33.43;7.30;;;15.60;14.90;;;;;;5028315;28;20467;-64
2022/04/16 12:26:55;;;;;;;33.07;7.43;;;15.70;15.10;;;;;;5026136;28;21046;-63
2022/04/16 12:29:29;;;;;;;33.07;7.00;;;16.00;15.10;;;;;;5025937;28;21034;-63
2022/04/16 12:31:57;;;;;;;32.97;6.87;;;16.20;14.70;;;;;;5021565;28;20487;-63
2022/04/16 12:34:24;;;;;;;34.40;8.57;;;16.50;14.50;;;;;;5021479;28;20968;-63
2022/04/16 12:36:51;;;;;;;32.17;7.30;;;16.50;14.30;;;;;;5024599;28;20482;-61
2022/04/16 12:39:18;;;;;;;32.57;7.40;;;16.50;14.40;;;;;;5021821;28;20474;-61
2022/04/16 12:41:44;;;;;;;31.67;6.50;;;16.50;14.10;;;;;;5025858;28;20459;-63
2022/04/16 12:44:11;;;;;;;32.30;7.07;;;16.50;14.20;;;;;;5024335;28;20474;-63
2022/04/16 12:46:39;;;;;;;33.87;8.27;;;16.50;14.10;;;;;;5031119;28;20491;-60
2022/04/16 12:49:06;;;;;;;35.57;8.83;;;16.40;13.40;;;;;;5022019;28;20481;-60
2022/04/16 12:51:32;;;;;;;33.17;7.20;;;16.30;13.70;;;;;;5024377;28;20990;-60
2022/04/16 12:54:00;;;;;;;31.93;6.17;;;16.20;13.30;;;;;;5027587;28;20463;-63
2022/04/16 12:56:27;;;;;;;32.27;6.60;;;16.00;13.70;;;;;;5024321;28;20494;-63
2022/04/16 12:58:54;;;;;;;32.57;7.03;;;16.00;13.90;;;;;;5019437;28;20463;-63
2022/04/16 13:01:20;;;;;;;32.20;7.10;;;16.00;14.10;;;;;;5029602;28;20482;-60
2022/04/16 13:03:49;;;;;;;33.60;8.37;;;16.00;14.20;;;;;;5024336;28;20498;-63
2022/04/16 13:06:16;;;;;;;32.47;7.30;;;15.90;13.80;;;;;;5032234;28;20545;-62